Latest Weather Observations for Lord Howe Island Windy Point

IDN60801

Issued at 3:05 am EST Saturday 26 July 2014 (issued every 30 minutes, with the page automatically refreshed every 10 minutes)

About weather observations | Map of weather stations | Latest weather observations for NSW | Other Formats
Station Details ID: 200715 Name: LORD HOWE ISLAND WINDY POINT Lat: -31.54 Lon: 159.07 Height: 4.0 m
Data from the previous 72 hours. | See also: Recent months for locations in New South Wales
Date/Time
EST
Temp
°C
App
Temp
°C
Dew
Point
Rel
Hum
%
Delta-T
°C
Wind Press
QNH
hPa
Press
MSL
hPa
Rain
since 9 am
mm
Dir
 
Spd
km/h
Gust
km/h
Spd
kts
Gust
kts
26/03:00am - - - - - NNW 19 28 10 15 - - -
26/02:30am - - - - - NNW 9 19 5 10 - - -
26/02:00am - - - - - NW 7 17 4 9 - - -
26/01:30am - - - - - NNE 4 11 2 6 - - -
26/01:00am - - - - - NNW 9 17 5 9 - - -
26/12:30am - - - - - NNW 15 22 8 12 - - -
26/12:00am - - - - - NNW 15 26 8 14 - - -
 
Date/Time
EST
Temp
°C
App
Temp
°C
Dew
Point
Rel
Hum
%
Delta-T
°C
Wind Press
QNH
hPa
Press
MSL
hPa
Rain
since 9 am
mm
Dir
 
Spd
km/h
Gust
km/h
Spd
kts
Gust
kts
25/11:30pm - - - - - NW 7 11 4 6 - - -
25/11:00pm - - - - - NW 6 17 3 9 - - -
25/10:30pm - - - - - NNW 15 22 8 12 - - -
25/10:00pm - - - - - N 9 15 5 8 - - -
25/09:30pm - - - - - NW 13 22 7 12 - - -
25/09:00pm - - - - - NW 17 28 9 15 - - -
25/08:30pm - - - - - NNW 11 19 6 10 - - -
25/08:00pm - - - - - NW 11 19 6 10 - - -
25/07:30pm - - - - - NW 11 19 6 10 - - -
25/07:00pm - - - - - NW 9 17 5 9 - - -
25/06:30pm - - - - - NNW 9 17 5 9 - - -
25/06:00pm - - - - - NNW 11 19 6 10 - - -
25/05:30pm - - - - - N 7 11 4 6 - - -
25/05:00pm - - - - - NNW 7 13 4 7 - - -
25/04:30pm - - - - - NNW 11 19 6 10 - - -
25/04:00pm - - - - - NW 11 19 6 10 - - -
25/03:30pm - - - - - NNW 7 15 4 8 - - -
25/03:00pm - - - - - NNW 11 22 6 12 - - -
25/02:30pm - - - - - NW 13 24 7 13 - - -
25/02:00pm - - - - - N 11 19 6 10 - - -
25/01:30pm - - - - - NNE 9 20 5 11 - - -
25/01:00pm - - - - - NNE 13 19 7 10 - - -
25/12:30pm - - - - - N 13 20 7 11 - - -
25/12:00pm - - - - - NW 13 20 7 11 - - -
25/11:30am - - - - - NW 13 24 7 13 - - -
25/11:00am - - - - - N 9 17 5 9 - - -
25/10:30am - - - - - NNW 11 20 6 11 - - -
25/10:00am - - - - - N 9 17 5 9 - - -
25/09:30am - - - - - N 9 20 5 11 - - -
25/09:00am - - - - - NNE 9 17 5 9 - - -
25/08:30am - - - - - NNW 7 13 4 7 - - -
25/08:00am - - - - - N 9 20 5 11 - - -
25/07:30am - - - - - N 11 17 6 9 - - -
25/07:00am - - - - - NNE 9 13 5 7 - - -
25/06:30am - - - - - N 7 13 4 7 - - -
25/06:00am - - - - - NNE 7 11 4 6 - - -
25/05:30am - - - - - NNE 2 7 1 4 - - -
25/05:00am - - - - - NE 6 9 3 5 - - -
25/04:30am - - - - - NNE 6 9 3 5 - - -
25/04:00am - - - - - NNE 6 17 3 9 - - -
25/03:30am - - - - - NNE 9 17 5 9 - - -
25/03:00am - - - - - NNE 7 13 4 7 - - -
25/02:30am - - - - - NNE 9 11 5 6 - - -
25/02:00am - - - - - NNE 9 15 5 8 - - -
25/01:30am - - - - - NNE 7 11 4 6 - - -
25/01:00am - - - - - NNE 9 13 5 7 - - -
25/12:30am - - - - - NE 11 13 6 7 - - -
25/12:00am - - - - - NE 9 13 5 7 - - -
 
Date/Time
EST
Temp
°C
App
Temp
°C
Dew
Point
Rel
Hum
%
Delta-T
°C
Wind Press
QNH
hPa
Press
MSL
hPa
Rain
since 9 am
mm
Dir
 
Spd
km/h
Gust
km/h
Spd
kts
Gust
kts
24/11:30pm - - - - - NNE 9 13 5 7 - - -
24/11:00pm - - - - - NNE 7 9 4 5 - - -
24/10:30pm - - - - - NNE 7 11 4 6 - - -
24/10:00pm - - - - - NNE 9 13 5 7 - - -
24/09:30pm - - - - - ENE 9 15 5 8 - - -
24/09:00pm - - - - - ENE 9 13 5 7 - - -
24/08:30pm - - - - - ENE 9 15 5 8 - - -
24/08:00pm - - - - - NE 7 13 4 7 - - -
24/07:30pm - - - - - NE 9 13 5 7 - - -
24/07:00pm - - - - - NE 9 11 5 6 - - -
24/06:30pm - - - - - ENE 11 17 6 9 - - -
24/06:00pm - - - - - ENE 13 17 7 9 - - -
24/05:30pm - - - - - ENE 11 17 6 9 - - -
24/05:00pm - - - - - NE 9 13 5 7 - - -
24/04:30pm - - - - - NE 7 9 4 5 - - -
24/04:00pm - - - - - ENE 9 13 5 7 - - -
24/03:30pm - - - - - ENE 7 9 4 5 - - -
24/03:00pm - - - - - E 9 11 5 6 - - -
24/02:30pm - - - - - E 9 13 5 7 - - -
24/02:00pm - - - - - E 11 15 6 8 - - -
24/01:30pm - - - - - E 9 13 5 7 - - -
24/01:00pm - - - - - E 11 15 6 8 - - -
24/12:30pm - - - - - E 13 19 7 10 - - -
24/12:00pm - - - - - E 11 17 6 9 - - -
24/11:30am - - - - - E 15 20 8 11 - - -
24/11:00am - - - - - E 13 19 7 10 - - -
24/10:30am - - - - - E 17 20 9 11 - - -
24/10:00am - - - - - E 17 20 9 11 - - -
24/09:30am - - - - - E 13 15 7 8 - - -
24/09:00am - - - - - E 7 11 4 6 - - -
24/08:30am - - - - - CALM 0 0 0 0 - - -
24/08:00am - - - - - CALM 0 0 0 0 - - -
24/07:30am - - - - - CALM 0 0 0 0 - - -
24/07:00am - - - - - NNW 2 7 1 4 - - -
24/06:30am - - - - - ENE 2 9 1 5 - - -
24/06:00am - - - - - E 6 7 3 4 - - -
24/05:30am - - - - - S 9 19 5 10 - - -
24/05:00am - - - - - SE 11 15 6 8 - - -
24/04:30am - - - - - E 9 11 5 6 - - -
24/04:00am - - - - - E 11 15 6 8 - - -
24/03:30am - - - - - SE 13 19 7 10 - - -
24/03:00am - - - - - ENE 2 6 1 3 - - -
24/02:30am - - - - - CALM 0 0 0 0 - - -
24/02:00am - - - - - ESE 7 11 4 6 - - -
24/01:30am - - - - - ESE 17 22 9 12 - - -
24/01:00am - - - - - ESE 13 19 7 10 - - -
24/12:30am - - - - - ESE 13 19 7 10 - - -
24/12:00am - - - - - E 6 9 3 5 - - -
 
Date/Time
EST
Temp
°C
App
Temp
°C
Dew
Point
Rel
Hum
%
Delta-T
°C
Wind Press
QNH
hPa
Press
MSL
hPa
Rain
since 9 am
mm
Dir
 
Spd
km/h
Gust
km/h
Spd
kts
Gust
kts
23/11:30pm - - - - - E 6 9 3 5 - - -
23/11:00pm - - - - - E 4 7 2 4 - - -
23/10:30pm - - - - - E 4 7 2 4 - - -
23/10:00pm - - - - - E 2 6 1 3 - - -
23/09:30pm - - - - - E 4 7 2 4 - - -
23/09:00pm - - - - - E 2 7 1 4 - - -
23/08:30pm - - - - - SE 7 13 4 7 - - -
23/08:00pm - - - - - ESE 7 11 4 6 - - -
23/07:30pm - - - - - E 7 11 4 6 - - -
23/07:00pm - - - - - SE 9 13 5 7 - - -
23/06:30pm - - - - - ESE 9 15 5 8 - - -
23/06:00pm - - - - - ESE 6 11 3 6 - - -
23/05:30pm - - - - - E 6 11 3 6 - - -
23/05:00pm - - - - - ESE 9 22 5 12 - - -
23/04:30pm - - - - - SE 9 19 5 10 - - -
23/04:00pm - - - - - SSE 7 24 4 13 - - -
23/03:30pm - - - - - ESE 11 20 6 11 - - -
23/03:00pm - - - - - SSE 13 24 7 13 - - -
23/02:30pm - - - - - SE 11 20 6 11 - - -
23/02:00pm - - - - - SSW 19 37 10 20 - - -
23/01:30pm - - - - - SSW 17 22 9 12 - - -
23/01:00pm - - - - - SSE 9 24 5 13 - - -
23/12:30pm - - - - - S 19 32 10 17 - - -
23/12:00pm - - - - - E 19 22 10 12 - - -
23/11:30am - - - - - ESE 20 28 11 15 - - -
23/11:00am - - - - - ESE 20 28 11 15 - - -
23/10:30am - - - - - ESE 7 11 4 6 - - -
23/10:00am - - - - - ESE 24 39 13 21 - - -
23/09:30am - - - - - ESE 24 35 13 19 - - -
23/09:00am - - - - - SE 19 28 10 15 - - -
23/08:30am - - - - - SE 17 30 9 16 - - -
23/08:00am - - - - - SE 13 20 7 11 - - -
23/07:30am - - - - - ESE 13 24 7 13 - - -
23/07:00am - - - - - ESE 11 20 6 11 - - -
23/06:30am - - - - - ESE 13 17 7 9 - - -
23/06:00am - - - - - NE 9 13 5 7 - - -
23/05:30am - - - - - NE 11 15 6 8 - - -
23/05:00am - - - - - ENE 7 9 4 5 - - -
23/04:30am - - - - - NNW 2 6 1 3 - - -
23/04:00am - - - - - E 11 15 6 8 - - -
23/03:30am - - - - - SE 17 24 9 13 - - -

Other Formats:

Comma delimited format used in spreadsheet applications
http://www.bom.gov.au/fwo/IDN60801/IDN60801.95995.axf

JavaScript Object Notation format (JSON) in row-major order
http://www.bom.gov.au/fwo/IDN60801/IDN60801.95995.json